Time;durP1;ratioP1;P1;durP2;ratioP2;P2;SDS_P1;SDS_P2;PMS_P1;PMS_P2;Temp;Humidity;BMP_temperature;BMP_pressure;BME280_temperature;BME280_humidity;BME280_pressure;Samples;Min_cycle;Max_cycle;Signal;HPM_P1;HPM_P2
2022/01/13 00:01:14;;;;;;;;;9.33;8.33;;;;;;;;5309418;27;8779;-70
2022/01/13 00:03:45;;;;;;;;;9.25;9.25;;;;;;;;5290652;27;8788;-70
2022/01/13 00:06:16;;;;;;;;;7.50;7.00;;;;;;;;5274424;27;9553;-70
2022/01/13 00:08:47;;;;;;;;;7.00;7.00;;;;;;;;5274425;27;8946;-71
2022/01/13 00:11:18;;;;;;;;;7.00;7.00;;;;;;;;5291149;27;8806;-70
2022/01/13 00:16:42;;;;;;;;;14.25;14.25;;;;;;;;5283306;28;8798;-71
2022/01/13 00:22:50;;;;;;;;;9.67;9.00;;;;;;;;5251893;28;8782;-70
2022/01/13 00:24:48;;;;;;;;;3.25;0.50;;;;;;;;5253004;28;8766;-71
2022/01/13 00:27:21;;;;;;;;;13.50;13.50;;;;;;;;5270462;28;8789;-71
2022/01/13 00:29:55;;;;;;;;;14.25;14.25;;;;;;;;5252486;28;8779;-71
2022/01/13 00:32:29;;;;;;;;;12.00;12.00;;;;;;;;5252496;28;8786;-70
2022/01/13 00:35:00;;;;;;;;;0.75;0.75;;;;;;;;5235792;28;8779;-71
2022/01/13 00:37:31;;;;;;;;;6.00;6.00;;;;;;;;5269756;28;8850;-72
2022/01/13 00:40:03;;;;;;;;;3.33;3.33;;;;;;;;5252465;28;9592;-72
2022/01/13 00:42:34;;;;;;;;;6.25;6.25;;;;;;;;5252528;28;11404;-72
2022/01/13 00:45:05;;;;;;;;;3.00;3.00;;;;;;;;5270754;28;8810;-72
2022/01/13 00:47:37;;;;;;;;;4.00;4.00;;;;;;;;5252647;28;10451;-72
2022/01/13 00:50:09;;;;;;;;;3.80;3.80;;;;;;;;5252387;28;8782;-73
2022/01/13 00:52:58;;;;;;;;;9.00;9.00;;;;;;;;5252864;28;8870;-73
2022/01/13 00:55:46;;;;;;;;;7.00;7.00;;;;;;;;5252981;28;9015;-73
2022/01/13 00:58:17;;;;;;;;;8.00;7.50;;;;;;;;5253175;28;8766;-72
2022/01/13 01:00:48;;;;;;;;;6.50;6.25;;;;;;;;5252384;28;8807;-72
2022/01/13 01:03:19;;;;;;;;;8.33;8.33;;;;;;;;5235292;28;8854;-70
2022/01/13 01:05:50;;;;;;;;;0.67;0.67;;;;;;;;5252559;28;8783;-72
2022/01/13 01:08:22;;;;;;;;;2.50;1.00;;;;;;;;5251777;28;10022;-73
2022/01/13 01:10:54;;;;;;;;;0.75;0.75;;;;;;;;5251932;28;9674;-71
2022/01/13 01:13:29;;;;;;;;;8.00;8.00;;;;;;;;5235288;28;8775;-70
2022/01/13 01:16:02;;;;;;;;;9.50;7.00;;;;;;;;5251712;28;8818;-70
2022/01/13 01:31:46;;;;;;;;;12.25;11.50;;;;;;;;5251407;28;8868;-72
2022/01/13 01:36:54;;;;;;;;;12.00;12.00;;;;;;;;5251736;28;8822;-71
2022/01/13 01:39:25;;;;;;;;;11.00;10.00;;;;;;;;5251158;28;8763;-72
2022/01/13 01:41:56;;;;;;;;;9.25;9.25;;;;;;;;5234629;28;9547;-69
2022/01/13 01:44:36;;;;;;;;;6.40;6.40;;;;;;;;5251314;28;8791;-70
2022/01/13 01:47:10;;;;;;;;;4.80;4.80;;;;;;;;5251652;28;8782;-71
2022/01/13 01:49:42;;;;;;;;;9.50;9.50;;;;;;;;5251331;28;8778;-72
2022/01/13 01:52:15;;;;;;;;;19.00;16.50;;;;;;;;5251407;28;8759;-73
2022/01/13 01:54:47;;;;;;;;;29.50;26.75;;;;;;;;5269490;28;8847;-72
2022/01/13 01:57:19;;;;;;;;;27.25;27.25;;;;;;;;5268816;28;8810;-71
2022/01/13 01:59:51;;;;;;;;;34.75;33.75;;;;;;;;5234118;28;8872;-70
2022/01/13 02:02:23;;;;;;;;;23.25;20.00;;;;;;;;5241474;28;8788;-70
2022/01/13 02:05:12;;;;;;;;;14.50;14.50;;;;;;;;5290115;28;8752;-69
2022/01/13 02:07:44;;;;;;;;;6.50;6.25;;;;;;;;5290535;28;9494;-70
2022/01/13 02:10:16;;;;;;;;;9.00;7.50;;;;;;;;5297282;27;8823;-69
2022/01/13 02:12:51;;;;;;;;;8.00;8.00;;;;;;;;5275460;27;8774;-72
2022/01/13 02:16:02;;;;;;;;;9.50;9.50;;;;;;;;5295813;27;8850;-73
2022/01/13 02:18:33;;;;;;;;;12.50;12.25;;;;;;;;5311167;27;8754;-72
2022/01/13 02:21:04;;;;;;;;;10.00;10.00;;;;;;;;5275933;27;8762;-71
2022/01/13 02:23:37;;;;;;;;;10.00;10.00;;;;;;;;5275959;27;8797;-71
2022/01/13 02:26:09;;;;;;;;;15.00;14.00;;;;;;;;5275273;27;8796;-71
2022/01/13 02:28:41;;;;;;;;;14.00;14.00;;;;;;;;5292619;27;8774;-73
2022/01/13 02:31:12;;;;;;;;;13.50;13.00;;;;;;;;5292898;27;8769;-70
2022/01/13 02:34:02;;;;;;;;;9.25;9.25;;;;;;;;5310779;27;9425;-74
2022/01/13 02:36:33;;;;;;;;;11.75;11.75;;;;;;;;5292519;27;8797;-71
2022/01/13 02:39:23;;;;;;;;;8.50;8.50;;;;;;;;5310777;27;8789;-72
2022/01/13 02:41:54;;;;;;;;;6.00;4.50;;;;;;;;5310605;27;8805;-71
2022/01/13 02:44:25;;;;;;;;;8.50;8.50;;;;;;;;5291631;27;8778;-72
2022/01/13 02:47:32;;;;;;;;;10.50;10.00;;;;;;;;5292041;27;8774;-74
2022/01/13 02:50:21;;;;;;;;;7.00;7.00;;;;;;;;5310847;27;8824;-73
2022/01/13 02:53:11;;;;;;;;;11.75;11.75;;;;;;;;5292068;27;8783;-72
2022/01/13 02:55:41;;;;;;;;;11.25;11.25;;;;;;;;5310470;27;8837;-71
2022/01/13 02:58:13;;;;;;;;;8.50;8.50;;;;;;;;5310108;27;8775;-69
2022/01/13 03:00:45;;;;;;;;;5.20;4.80;;;;;;;;5274803;27;8916;-70
2022/01/13 03:03:16;;;;;;;;;10.50;9.75;;;;;;;;5291661;27;8770;-68
2022/01/13 03:05:47;;;;;;;;;12.75;12.25;;;;;;;;5274933;27;8800;-71
2022/01/13 03:08:18;;;;;;;;;16.25;16.00;;;;;;;;5274638;27;8770;-73
2022/01/13 03:10:49;;;;;;;;;7.40;5.20;;;;;;;;5274679;27;8805;-74
2022/01/13 03:13:23;;;;;;;;;9.75;9.75;;;;;;;;5274733;27;8790;-76
2022/01/13 03:15:53;;;;;;;;;18.50;18.00;;;;;;;;5309847;27;8802;-75
2022/01/13 03:18:24;;;;;;;;;21.00;21.00;;;;;;;;5292226;27;8838;-74
2022/01/13 03:20:55;;;;;;;;;9.75;9.00;;;;;;;;5291543;27;8762;-74
2022/01/13 03:23:26;;;;;;;;;20.00;18.67;;;;;;;;5291687;27;8774;-75
2022/01/13 03:25:57;;;;;;;;;18.33;16.67;;;;;;;;5309815;27;8786;-74
2022/01/13 03:28:38;;;;;;;;;19.50;19.50;;;;;;;;5310379;27;8790;-71
2022/01/13 03:31:09;;;;;;;;;21.00;21.00;;;;;;;;5309282;27;8857;-72
2022/01/13 03:33:40;;;;;;;;;15.33;14.33;;;;;;;;5309845;27;8771;-73
2022/01/13 03:36:11;;;;;;;;;13.67;13.67;;;;;;;;5274981;27;8833;-72
2022/01/13 03:38:42;;;;;;;;;9.00;9.00;;;;;;;;5309696;27;8801;-73
2022/01/13 03:41:13;;;;;;;;;10.00;9.75;;;;;;;;5309629;27;8789;-73
2022/01/13 03:43:44;;;;;;;;;21.50;21.00;;;;;;;;5309410;27;10014;-72
2022/01/13 03:46:15;;;;;;;;;18.67;18.33;;;;;;;;5271790;27;8797;-73
2022/01/13 03:48:46;;;;;;;;;19.00;19.00;;;;;;;;5270020;28;8769;-73
2022/01/13 03:51:17;;;;;;;;;8.50;6.75;;;;;;;;5287911;28;10472;-73
2022/01/13 03:54:06;;;;;;;;;19.50;18.00;;;;;;;;5270247;28;8858;-72
2022/01/13 03:56:50;;;;;;;;;14.50;14.00;;;;;;;;5272871;28;8804;-73
2022/01/13 03:59:40;;;;;;;;;13.00;13.00;;;;;;;;5274397;28;8776;-73
2022/01/13 04:02:12;;;;;;;;;13.00;13.00;;;;;;;;5274160;28;8786;-73
2022/01/13 04:04:47;;;;;;;;;6.50;6.50;;;;;;;;5258301;28;8772;-72
2022/01/13 04:07:19;;;;;;;;;9.75;9.25;;;;;;;;5274042;28;8804;-71
2022/01/13 04:09:51;;;;;;;;;9.75;9.75;;;;;;;;5256987;28;8815;-74
2022/01/13 04:12:24;;;;;;;;;12.80;12.60;;;;;;;;5274480;28;8823;-73
2022/01/13 04:14:59;;;;;;;;;13.60;12.80;;;;;;;;5273862;28;9435;-70
2022/01/13 04:17:30;;;;;;;;;10.40;10.40;;;;;;;;5273976;28;8768;-70
2022/01/13 04:20:01;;;;;;;;;10.50;9.50;;;;;;;;5292091;28;8823;-73
2022/01/13 04:22:33;;;;;;;;;9.60;9.20;;;;;;;;5273495;28;9848;-73
2022/01/13 04:25:04;;;;;;;;;10.50;10.50;;;;;;;;5291686;28;8865;-74
2022/01/13 04:28:01;;;;;;;;;13.25;12.25;;;;;;;;5273938;28;8776;-71
2022/01/13 04:33:12;;;;;;;;;15.40;15.20;;;;;;;;5308326;27;8794;-74
2022/01/13 04:35:43;;;;;;;;;15.00;13.00;;;;;;;;5294411;27;8790;-75
2022/01/13 04:38:14;;;;;;;;;7.00;7.00;;;;;;;;5313153;27;8772;-75
2022/01/13 04:40:48;;;;;;;;;13.40;12.60;;;;;;;;5260594;27;9446;-75
2022/01/13 04:43:19;;;;;;;;;10.50;10.00;;;;;;;;5312743;27;8823;-75
2022/01/13 04:45:50;;;;;;;;;9.50;9.50;;;;;;;;5312796;27;8879;-74
2022/01/13 04:48:21;;;;;;;;;37.50;37.50;;;;;;;;5277092;27;8802;-75
2022/01/13 04:50:52;;;;;;;;;24.50;23.50;;;;;;;;5312414;27;8810;-74
2022/01/13 04:53:23;;;;;;;;;17.20;16.00;;;;;;;;5276508;27;8896;-72
2022/01/13 04:55:58;;;;;;;;;9.67;9.67;;;;;;;;5293762;27;8949;-73
2022/01/13 04:58:29;;;;;;;;;12.40;10.40;;;;;;;;5260732;27;8858;-72
2022/01/13 05:01:00;;;;;;;;;15.40;15.20;;;;;;;;5285718;28;8873;-75
2022/01/13 05:03:30;;;;;;;;;14.60;14.60;;;;;;;;5272787;28;9440;-75
2022/01/13 05:06:01;;;;;;;;;19.00;18.25;;;;;;;;5279766;27;8826;-67
2022/01/13 05:08:32;;;;;;;;;14.60;14.60;;;;;;;;5311782;27;8798;-69
2022/01/13 05:11:03;;;;;;;;;14.20;14.20;;;;;;;;5276678;27;8813;-68
2022/01/13 05:13:34;;;;;;;;;13.50;13.50;;;;;;;;5293533;27;9546;-68
2022/01/13 05:16:08;;;;;;;;;15.00;15.00;;;;;;;;5276947;27;11477;-74
2022/01/13 05:18:49;;;;;;;;;15.80;15.80;;;;;;;;5266120;28;8812;-73
2022/01/13 05:23:52;;;;;;;;;12.40;11.20;;;;;;;;5273062;28;9464;-71
2022/01/13 05:26:42;;;;;;;;;16.40;16.00;;;;;;;;5291110;28;8831;-75
2022/01/13 05:33:09;;;;;;;;;13.60;13.60;;;;;;;;5291307;28;8929;-72
2022/01/13 05:40:05;;;;;;;;;6.00;6.00;;;;;;;;5290186;28;8847;-74
2022/01/13 05:42:36;;;;;;;;;19.00;17.60;;;;;;;;5239459;28;8892;-74
2022/01/13 05:45:14;;;;;;;;;18.33;18.33;;;;;;;;5272328;28;8916;-75
2022/01/13 05:47:46;;;;;;;;;26.80;25.80;;;;;;;;5272579;28;9594;-70
2022/01/13 05:50:18;;;;;;;;;28.50;28.50;;;;;;;;5272028;28;8764;-70
2022/01/13 05:52:49;;;;;;;;;25.00;25.00;;;;;;;;5255481;28;8784;-71
2022/01/13 05:55:20;;;;;;;;;27.25;27.00;;;;;;;;5272101;28;8784;-75
2022/01/13 05:57:51;;;;;;;;;30.75;30.75;;;;;;;;5255435;28;11390;-71
2022/01/13 06:00:23;;;;;;;;;25.00;25.00;;;;;;;;5272006;28;8796;-71
2022/01/13 06:02:54;;;;;;;;;24.40;23.20;;;;;;;;5271802;28;8752;-73
2022/01/13 06:05:26;;;;;;;;;23.00;19.40;;;;;;;;5271975;28;8775;-74
2022/01/13 06:07:57;;;;;;;;;30.80;26.20;;;;;;;;5254800;28;8787;-74
2022/01/13 06:10:28;;;;;;;;;16.40;16.40;;;;;;;;5290404;28;8969;-74
2022/01/13 06:12:59;;;;;;;;;31.60;29.20;;;;;;;;5290214;28;8748;-74
2022/01/13 06:15:49;;;;;;;;;24.40;24.40;;;;;;;;5274723;28;8800;-75
2022/01/13 06:18:24;;;;;;;;;18.50;18.00;;;;;;;;5254157;28;8795;-74
2022/01/13 06:20:56;;;;;;;;;27.00;25.00;;;;;;;;5271848;28;8756;-74
2022/01/13 06:23:26;;;;;;;;;30.00;30.00;;;;;;;;5290534;28;9463;-74
2022/01/13 06:25:58;;;;;;;;;21.25;21.00;;;;;;;;5254794;28;8776;-75
2022/01/13 06:28:28;;;;;;;;;20.50;20.50;;;;;;;;5254873;28;9782;-74
2022/01/13 06:30:59;;;;;;;;;5.50;5.50;;;;;;;;5254729;28;12139;-73
2022/01/13 06:33:30;;;;;;;;;25.60;25.60;;;;;;;;5289226;28;8780;-74
2022/01/13 06:36:04;;;;;;;;;20.20;18.80;;;;;;;;5290198;28;8941;-74
2022/01/13 06:38:36;;;;;;;;;23.80;23.60;;;;;;;;5290045;28;8881;-75
2022/01/13 06:41:07;;;;;;;;;24.20;22.40;;;;;;;;5289295;28;8799;-74
2022/01/13 06:43:38;;;;;;;;;26.40;26.40;;;;;;;;5237833;28;9435;-72
2022/01/13 06:46:11;;;;;;;;;25.00;22.75;;;;;;;;5271344;28;8984;-71
2022/01/13 06:48:43;;;;;;;;;20.20;18.60;;;;;;;;5271061;28;8776;-74
2022/01/13 06:51:14;;;;;;;;;19.80;19.80;;;;;;;;5253831;28;8789;-74
2022/01/13 06:53:45;;;;;;;;;29.80;28.00;;;;;;;;5271072;28;8788;-73
2022/01/13 06:56:16;;;;;;;;;28.80;28.40;;;;;;;;5270982;28;8823;-74
2022/01/13 06:58:49;;;;;;;;;27.00;24.80;;;;;;;;5270856;28;8851;-74
2022/01/13 07:01:22;;;;;;;;;18.00;18.00;;;;;;;;5289763;28;8780;-74
2022/01/13 07:03:52;;;;;;;;;21.60;21.20;;;;;;;;5270951;28;8800;-74
2022/01/13 07:06:23;;;;;;;;;19.50;19.50;;;;;;;;5271054;28;8807;-74
2022/01/13 07:08:54;;;;;;;;;26.00;25.50;;;;;;;;5271178;28;8764;-74
2022/01/13 07:11:25;;;;;;;;;23.00;19.00;;;;;;;;5288997;28;8808;-73
2022/01/13 07:13:56;;;;;;;;;22.00;22.00;;;;;;;;5253647;28;8795;-74
2022/01/13 07:16:27;;;;;;;;;21.25;19.00;;;;;;;;5288945;28;8838;-74
2022/01/13 07:18:58;;;;;;;;;18.40;18.40;;;;;;;;5237018;28;8776;-76
2022/01/13 07:21:29;;;;;;;;;23.80;18.40;;;;;;;;5288860;28;8772;-74
2022/01/13 07:24:00;;;;;;;;;20.20;20.20;;;;;;;;5270672;28;8796;-74
2022/01/13 07:26:31;;;;;;;;;17.80;17.80;;;;;;;;5288417;28;8796;-74
2022/01/13 07:29:03;;;;;;;;;22.20;22.00;;;;;;;;5288427;28;8884;-72
2022/01/13 07:31:37;;;;;;;;;18.00;16.60;;;;;;;;5237217;28;9572;-73
2022/01/13 07:34:09;;;;;;;;;24.20;23.80;;;;;;;;5270858;28;8800;-74
2022/01/13 07:36:40;;;;;;;;;20.80;20.80;;;;;;;;5270483;28;8827;-73
2022/01/13 07:39:11;;;;;;;;;15.80;15.40;;;;;;;;5253884;28;8861;-74
2022/01/13 07:42:01;;;;;;;;;8.60;8.60;;;;;;;;5273341;28;9432;-74
2022/01/13 07:44:34;;;;;;;;;8.60;8.20;;;;;;;;5237249;28;8784;-75
2022/01/13 07:47:05;;;;;;;;;18.00;18.00;;;;;;;;5287896;28;8776;-74
2022/01/13 07:49:36;;;;;;;;;5.60;5.20;;;;;;;;5288123;28;8773;-75
2022/01/13 07:52:07;;;;;;;;;11.50;11.50;;;;;;;;5288647;28;8818;-74
2022/01/13 07:54:57;;;;;;;;;19.00;18.60;;;;;;;;5288527;28;9998;-75
2022/01/13 07:57:28;;;;;;;;;18.50;18.50;;;;;;;;5269952;28;9577;-74
2022/01/13 07:59:58;;;;;;;;;14.00;14.00;;;;;;;;5269848;28;8799;-74
2022/01/13 08:02:29;;;;;;;;;16.50;16.50;;;;;;;;5253406;28;9447;-74
2022/01/13 08:05:00;;;;;;;;;18.00;16.50;;;;;;;;5288633;28;8765;-74
2022/01/13 08:07:31;;;;;;;;;13.75;13.75;;;;;;;;5270526;28;8779;-75
2022/01/13 08:10:02;;;;;;;;;12.25;12.25;;;;;;;;5270113;28;8820;-74
2022/01/13 08:12:33;;;;;;;;;12.60;12.60;;;;;;;;5270079;28;8785;-74
2022/01/13 08:15:07;;;;;;;;;15.00;13.00;;;;;;;;5288083;28;8752;-75
2022/01/13 08:20:28;;;;;;;;;26.00;26.00;;;;;;;;5270432;28;8760;-75
2022/01/13 08:22:59;;;;;;;;;22.20;22.20;;;;;;;;5236658;28;8772;-74
2022/01/13 08:25:30;;;;;;;;;31.00;28.25;;;;;;;;5288491;28;8772;-74
2022/01/13 08:28:01;;;;;;;;;68.50;58.75;;;;;;;;5270089;28;8761;-74
2022/01/13 08:30:32;;;;;;;;;75.00;60.00;;;;;;;;5253105;28;8799;-74
2022/01/13 08:33:03;;;;;;;;;26.40;22.00;;;;;;;;5287977;28;8799;-74
2022/01/13 08:35:34;;;;;;;;;23.50;21.50;;;;;;;;5287810;28;8788;-74
2022/01/13 08:38:15;;;;;;;;;19.00;19.00;;;;;;;;5288363;28;8853;-74
2022/01/13 08:40:47;;;;;;;;;27.80;27.40;;;;;;;;5253172;28;8745;-75
2022/01/13 08:43:18;;;;;;;;;28.40;28.40;;;;;;;;5291240;28;8765;-73
2022/01/13 08:45:49;;;;;;;;;26.50;26.50;;;;;;;;5273390;28;8796;-74
2022/01/13 08:48:20;;;;;;;;;32.40;32.00;;;;;;;;5239530;28;8788;-74
2022/01/13 08:50:51;;;;;;;;;16.75;15.75;;;;;;;;5291352;28;8865;-74
2022/01/13 08:53:21;;;;;;;;;12.75;11.00;;;;;;;;5292057;28;8797;-74
2022/01/13 08:55:54;;;;;;;;;16.00;16.00;;;;;;;;5273657;28;8828;-74
2022/01/13 08:58:25;;;;;;;;;15.60;14.20;;;;;;;;5273054;28;9424;-73
2022/01/13 09:00:56;;;;;;;;;18.50;18.50;;;;;;;;5291701;28;8788;-73
2022/01/13 09:03:45;;;;;;;;;14.40;13.00;;;;;;;;5258723;28;8785;-73
2022/01/13 09:06:16;;;;;;;;;15.75;15.75;;;;;;;;5272784;28;8792;-75
2022/01/13 09:08:47;;;;;;;;;66.00;53.50;;;;;;;;5272759;28;8789;-75
2022/01/13 09:11:18;;;;;;;;;30.75;30.00;;;;;;;;5255764;28;8882;-75
2022/01/13 09:13:56;;;;;;;;;13.00;10.80;;;;;;;;5291483;28;8787;-74
2022/01/13 09:16:30;;;;;;;;;16.20;15.80;;;;;;;;5291516;28;8812;-74
2022/01/13 09:19:08;;;;;;;;;15.00;15.00;;;;;;;;5291527;28;8776;-74
2022/01/13 09:21:40;;;;;;;;;16.00;15.60;;;;;;;;5292262;28;8780;-73
2022/01/13 09:24:30;;;;;;;;;16.00;16.00;;;;;;;;5301796;27;8929;-74
2022/01/13 09:27:00;;;;;;;;;8.80;8.80;;;;;;;;5301941;27;8960;-74
2022/01/13 09:29:31;;;;;;;;;12.25;12.00;;;;;;;;5255626;28;8792;-75
2022/01/13 09:32:02;;;;;;;;;10.50;10.00;;;;;;;;5256576;28;8804;-74
2022/01/13 09:34:52;;;;;;;;;16.80;16.80;;;;;;;;5295553;27;9449;-75
2022/01/13 09:37:24;;;;;;;;;29.75;29.00;;;;;;;;5311851;27;8848;-73
2022/01/13 09:39:56;;;;;;;;;10.00;10.00;;;;;;;;5311627;27;8863;-72
2022/01/13 09:42:27;;;;;;;;;17.00;15.40;;;;;;;;5276565;27;8793;-70
2022/01/13 09:45:00;;;;;;;;;17.20;16.80;;;;;;;;5276372;27;8797;-71
2022/01/13 09:47:31;;;;;;;;;17.00;17.00;;;;;;;;5306295;27;8822;-69
2022/01/13 09:50:05;;;;;;;;;20.60;20.20;;;;;;;;5263927;27;8750;-71
2022/01/13 09:52:37;;;;;;;;;17.60;15.60;;;;;;;;5291593;27;8785;-72
2022/01/13 09:55:09;;;;;;;;;16.20;15.40;;;;;;;;5291451;27;8830;-70
2022/01/13 09:57:41;;;;;;;;;16.40;16.40;;;;;;;;5272981;28;8865;-70
2022/01/13 10:00:14;;;;;;;;;18.60;18.60;;;;;;;;5302263;27;8810;-71
2022/01/13 10:02:45;;;;;;;;;22.40;22.40;;;;;;;;5271628;28;8760;-71
2022/01/13 10:05:17;;;;;;;;;7.00;7.00;;;;;;;;5258993;28;8785;-71
2022/01/13 10:07:49;;;;;;;;;15.40;15.40;;;;;;;;5290063;28;8811;-71
2022/01/13 10:10:22;;;;;;;;;16.20;16.20;;;;;;;;5289732;28;8788;-70
2022/01/13 10:13:01;;;;;;;;;22.60;22.60;;;;;;;;5289896;28;8873;-71
2022/01/13 10:18:48;;;;;;;;;29.00;27.20;;;;;;;;5268335;28;8751;-71
2022/01/13 10:21:19;;;;;;;;;26.00;26.00;;;;;;;;5269196;28;8879;-69
2022/01/13 10:24:01;;;;;;;;;29.60;27.60;;;;;;;;5271735;28;8796;-70
2022/01/13 10:26:34;;;;;;;;;28.20;26.20;;;;;;;;5270709;28;8757;-69
2022/01/13 10:29:07;;;;;;;;;32.20;31.40;;;;;;;;5289655;28;8749;-71
2022/01/13 10:31:44;;;;;;;;;25.80;22.60;;;;;;;;5255031;28;8764;-71
2022/01/13 10:34:15;;;;;;;;;24.20;24.20;;;;;;;;5271404;28;8768;-70
2022/01/13 10:37:05;;;;;;;;;23.60;22.00;;;;;;;;5253902;28;8782;-71
2022/01/13 10:39:53;;;;;;;;;23.20;22.00;;;;;;;;5270853;28;8773;-71
2022/01/13 10:45:29;;;;;;;;;27.00;26.60;;;;;;;;5271669;28;8944;-71
2022/01/13 10:48:21;;;;;;;;;30.20;30.20;;;;;;;;5289771;28;8773;-71
2022/01/13 10:50:57;;;;;;;;;26.20;25.40;;;;;;;;5289813;28;9469;-72
2022/01/13 10:53:29;;;;;;;;;21.40;19.80;;;;;;;;5289052;28;9484;-73
2022/01/13 10:56:05;;;;;;;;;22.60;22.60;;;;;;;;5289287;28;8827;-70
2022/01/13 10:58:49;;;;;;;;;24.00;22.80;;;;;;;;5271019;28;8765;-73
2022/01/13 11:01:38;;;;;;;;;15.20;14.40;;;;;;;;5289350;28;8750;-72
2022/01/13 11:04:15;;;;;;;;;24.50;24.25;;;;;;;;5288045;28;9489;-72
2022/01/13 11:06:46;;;;;;;;;18.60;18.00;;;;;;;;5289333;28;8768;-72
2022/01/13 11:09:18;;;;;;;;;15.75;15.50;;;;;;;;5288726;28;8772;-71
2022/01/13 11:12:12;;;;;;;;;22.00;19.80;;;;;;;;5270440;28;8772;-71
2022/01/13 11:14:45;;;;;;;;;18.40;18.40;;;;;;;;5271332;28;8792;-71
2022/01/13 11:17:16;;;;;;;;;29.40;23.40;;;;;;;;5270793;28;8827;-72
2022/01/13 11:19:49;;;;;;;;;20.80;20.80;;;;;;;;5232557;28;8782;-72
2022/01/13 11:22:21;;;;;;;;;48.40;45.00;;;;;;;;5267742;28;8810;-72
2022/01/13 11:24:52;;;;;;;;;19.00;14.20;;;;;;;;5275262;28;9628;-70
2022/01/13 11:27:23;;;;;;;;;19.50;19.50;;;;;;;;5270584;28;9004;-72
2022/01/13 11:29:55;;;;;;;;;18.00;16.50;;;;;;;;5288413;28;8868;-71
2022/01/13 11:32:25;;;;;;;;;25.00;24.60;;;;;;;;5270527;28;8815;-71
2022/01/13 11:35:19;;;;;;;;;19.60;19.40;;;;;;;;5273963;28;8792;-71
2022/01/13 11:37:50;;;;;;;;;23.80;22.20;;;;;;;;5270007;28;8781;-70
2022/01/13 11:40:41;;;;;;;;;24.60;22.00;;;;;;;;5288782;28;8764;-71
2022/01/13 11:43:32;;;;;;;;;27.20;26.00;;;;;;;;5287873;28;8789;-71
2022/01/13 11:46:13;;;;;;;;;24.20;24.20;;;;;;;;5288627;28;8814;-72
2022/01/13 11:48:55;;;;;;;;;27.60;27.00;;;;;;;;5288968;28;8770;-71
2022/01/13 11:51:28;;;;;;;;;26.40;26.40;;;;;;;;5288864;28;8766;-71
2022/01/13 11:54:02;;;;;;;;;27.80;26.80;;;;;;;;5253283;28;8782;-74
2022/01/13 11:56:33;;;;;;;;;22.00;21.60;;;;;;;;5269769;28;8837;-71
2022/01/13 11:59:06;;;;;;;;;26.50;26.00;;;;;;;;5270066;28;8773;-72
2022/01/13 12:01:38;;;;;;;;;42.20;33.20;;;;;;;;5288272;28;11402;-71
2022/01/13 12:04:09;;;;;;;;;34.00;31.00;;;;;;;;5287788;28;8782;-71
2022/01/13 12:06:45;;;;;;;;;35.00;34.75;;;;;;;;5269951;28;8834;-72
2022/01/13 12:09:19;;;;;;;;;34.20;30.20;;;;;;;;5270100;28;11514;-72
2022/01/13 12:11:56;;;;;;;;;24.60;24.60;;;;;;;;5304180;27;8776;-72
2022/01/13 12:14:30;;;;;;;;;24.40;21.00;;;;;;;;5291728;27;8775;-71
2022/01/13 12:17:07;;;;;;;;;62.40;52.40;;;;;;;;5311118;27;8800;-71
2022/01/13 12:19:45;;;;;;;;;31.80;31.80;;;;;;;;5313994;27;8871;-71
2022/01/13 12:22:34;;;;;;;;;32.00;31.80;;;;;;;;5273364;28;8785;-72
2022/01/13 12:25:31;;;;;;;;;25.60;25.20;;;;;;;;5307444;27;8780;-73
2022/01/13 12:28:12;;;;;;;;;19.00;18.40;;;;;;;;5314246;27;8878;-76
2022/01/13 12:30:43;;;;;;;;;26.60;25.80;;;;;;;;5295171;27;8787;-69
2022/01/13 12:33:29;;;;;;;;;31.50;30.25;;;;;;;;5260783;27;8772;-69
2022/01/13 12:36:21;;;;;;;;;11.40;11.40;;;;;;;;5312321;27;9505;-68
2022/01/13 12:38:59;;;;;;;;;27.40;27.40;;;;;;;;5313407;27;8783;-69
2022/01/13 12:41:58;;;;;;;;;34.40;33.20;;;;;;;;5294654;27;8747;-70
2022/01/13 12:47:37;;;;;;;;;32.00;30.20;;;;;;;;5294668;27;8768;-70
2022/01/13 12:50:16;;;;;;;;;26.20;25.80;;;;;;;;5294335;27;8771;-69
2022/01/13 12:52:47;;;;;;;;;32.20;30.80;;;;;;;;5312595;27;8836;-70
2022/01/13 12:55:18;;;;;;;;;31.40;31.40;;;;;;;;5312236;27;8808;-69
2022/01/13 12:57:52;;;;;;;;;24.00;24.00;;;;;;;;5294041;27;8926;-69
2022/01/13 13:00:24;;;;;;;;;39.80;36.20;;;;;;;;5294360;27;8795;-68
2022/01/13 13:03:05;;;;;;;;;33.80;30.60;;;;;;;;5260353;27;9493;-69
2022/01/13 13:05:43;;;;;;;;;33.20;32.40;;;;;;;;5312389;27;8764;-69
2022/01/13 13:08:16;;;;;;;;;34.60;34.60;;;;;;;;5293967;27;8775;-69
2022/01/13 13:10:56;;;;;;;;;26.20;25.60;;;;;;;;5293560;27;8810;-69
2022/01/13 13:13:28;;;;;;;;;27.60;27.20;;;;;;;;5312447;27;8798;-68
2022/01/13 13:16:06;;;;;;;;;38.00;37.00;;;;;;;;5293621;27;8813;-69
2022/01/13 13:18:38;;;;;;;;;19.40;17.40;;;;;;;;5312100;27;8771;-69
2022/01/13 13:21:09;;;;;;;;;36.60;27.60;;;;;;;;5312078;27;8851;-69
2022/01/13 13:23:41;;;;;;;;;29.40;28.60;;;;;;;;5293894;27;8936;-69
2022/01/13 13:26:15;;;;;;;;;26.00;24.80;;;;;;;;5258393;27;8782;-67
2022/01/13 13:29:04;;;;;;;;;36.60;35.60;;;;;;;;5251424;28;8884;-70
2022/01/13 13:31:35;;;;;;;;;40.50;39.00;;;;;;;;5269849;28;8901;-69
2022/01/13 13:34:07;;;;;;;;;25.25;24.75;;;;;;;;5284256;27;8783;-69
2022/01/13 13:36:42;;;;;;;;;31.00;31.00;;;;;;;;5293292;27;8809;-69
2022/01/13 13:39:15;;;;;;;;;35.00;32.60;;;;;;;;5311778;27;8782;-68
2022/01/13 13:41:47;;;;;;;;;26.20;25.80;;;;;;;;5312046;27;9454;-70
2022/01/13 13:44:38;;;;;;;;;31.40;30.40;;;;;;;;5311498;27;8809;-68
2022/01/13 13:47:19;;;;;;;;;33.40;29.80;;;;;;;;5276488;27;9446;-68
2022/01/13 13:49:51;;;;;;;;;24.20;24.00;;;;;;;;5309323;27;8873;-68
2022/01/13 13:52:22;;;;;;;;;25.00;24.00;;;;;;;;5291721;27;8778;-68
2022/01/13 13:54:53;;;;;;;;;21.50;20.00;;;;;;;;5311720;27;9530;-69
2022/01/13 13:57:33;;;;;;;;;32.00;30.75;;;;;;;;5293359;27;8822;-69
2022/01/13 14:00:08;;;;;;;;;31.80;30.20;;;;;;;;5312065;27;8786;-69
2022/01/13 14:02:48;;;;;;;;;23.20;23.20;;;;;;;;5293642;27;8793;-70
2022/01/13 14:05:21;;;;;;;;;32.20;31.60;;;;;;;;5311246;27;8790;-68
2022/01/13 14:07:53;;;;;;;;;12.20;11.40;;;;;;;;5276061;27;8761;-69
2022/01/13 14:10:25;;;;;;;;;18.60;18.40;;;;;;;;5311275;27;9504;-70
2022/01/13 14:12:59;;;;;;;;;9.80;9.80;;;;;;;;5293499;27;8770;-68
2022/01/13 14:15:37;;;;;;;;;27.60;27.40;;;;;;;;5275587;27;8766;-69
2022/01/13 14:18:26;;;;;;;;;15.80;15.80;;;;;;;;5279053;27;8774;-68
2022/01/13 14:20:59;;;;;;;;;21.50;21.00;;;;;;;;5311342;27;8766;-68
2022/01/13 14:23:38;;;;;;;;;23.00;22.60;;;;;;;;5311109;27;8750;-69
2022/01/13 14:26:14;;;;;;;;;33.40;31.80;;;;;;;;5310717;27;8793;-69
2022/01/13 14:29:04;;;;;;;;;28.40;26.80;;;;;;;;5311268;27;8755;-69
2022/01/13 14:31:37;;;;;;;;;31.00;30.60;;;;;;;;5289417;28;8764;-70
2022/01/13 14:34:07;;;;;;;;;19.80;19.80;;;;;;;;5271654;28;8845;-70
2022/01/13 14:37:06;;;;;;;;;9.00;7.80;;;;;;;;5271035;28;8801;-69
2022/01/13 14:39:37;;;;;;;;;17.60;17.60;;;;;;;;5270577;28;8865;-70
2022/01/13 14:42:29;;;;;;;;;24.00;22.80;;;;;;;;5289400;28;8776;-69
2022/01/13 14:45:22;;;;;;;;;23.00;22.00;;;;;;;;5289167;28;8812;-70
2022/01/13 14:47:52;;;;;;;;;11.80;11.80;;;;;;;;5254472;28;8768;-68
2022/01/13 14:50:23;;;;;;;;;16.25;15.25;;;;;;;;5289435;28;8873;-68
2022/01/13 14:52:54;;;;;;;;;25.75;22.75;;;;;;;;5288910;27;9532;-69
2022/01/13 14:55:25;;;;;;;;;20.50;20.50;;;;;;;;5308550;27;8786;-68
2022/01/13 14:57:56;;;;;;;;;16.50;15.50;;;;;;;;5291671;27;8902;-69
2022/01/13 15:00:27;;;;;;;;;27.00;21.50;;;;;;;;5309919;27;8786;-70
2022/01/13 15:02:57;;;;;;;;;25.25;22.25;;;;;;;;5310456;27;8766;-69
2022/01/13 15:05:28;;;;;;;;;30.75;24.75;;;;;;;;5292359;27;9527;-70
2022/01/13 15:07:59;;;;;;;;;55.75;44.75;;;;;;;;5310585;27;8774;-68
2022/01/13 15:10:30;;;;;;;;;25.25;23.00;;;;;;;;5301952;27;10503;-68
2022/01/13 15:13:02;;;;;;;;;22.00;18.25;;;;;;;;5310292;27;11407;-68
2022/01/13 15:15:34;;;;;;;;;24.00;22.80;;;;;;;;5291903;27;8779;-69
2022/01/13 15:18:05;;;;;;;;;25.00;25.00;;;;;;;;5310155;27;8763;-68
2022/01/13 15:20:36;;;;;;;;;15.75;15.75;;;;;;;;5309270;27;8824;-69
2022/01/13 15:23:08;;;;;;;;;24.25;23.50;;;;;;;;5274163;27;8916;-68
2022/01/13 15:33:22;;;;;;;;;21.80;20.60;;;;;;;;5288090;28;8774;-73
2022/01/13 15:35:53;;;;;;;;;24.25;24.00;;;;;;;;5288560;28;8836;-71
2022/01/13 15:38:24;;;;;;;;;27.75;25.75;;;;;;;;5287612;28;8806;-70
2022/01/13 15:40:55;;;;;;;;;22.75;22.50;;;;;;;;5269953;28;8789;-71
2022/01/13 15:47:50;;;;;;;;;27.80;27.80;;;;;;;;5288117;28;8714;-68
2022/01/13 15:50:24;;;;;;;;;18.60;18.20;;;;;;;;5289009;28;8788;-69
2022/01/13 15:52:55;;;;;;;;;22.40;21.60;;;;;;;;5313756;27;9520;-69
2022/01/13 15:55:44;;;;;;;;;22.40;22.40;;;;;;;;5298318;27;8800;-69
2022/01/13 15:58:16;;;;;;;;;26.00;26.00;;;;;;;;5313669;27;8896;-69
2022/01/13 16:00:46;;;;;;;;;17.20;17.20;;;;;;;;5294711;27;8786;-69
2022/01/13 16:03:17;;;;;;;;;37.00;34.50;;;;;;;;5314125;27;8756;-70
2022/01/13 16:05:48;;;;;;;;;23.25;21.75;;;;;;;;5314377;27;8844;-70
2022/01/13 16:08:19;;;;;;;;;37.00;32.80;;;;;;;;5313600;27;8772;-71
2022/01/13 16:10:50;;;;;;;;;17.75;17.75;;;;;;;;5313723;27;8887;-70
2022/01/13 16:13:20;;;;;;;;;65.50;51.75;;;;;;;;5313120;27;8775;-70
2022/01/13 16:15:51;;;;;;;;;29.00;28.00;;;;;;;;5294407;27;8794;-71